Aviation Digital Data Service (ADDS)

Output produced by METARs form (0833 UTC 18 February 2019)
found at http://www.aviationweather.gov/metar/data/
 
METAR text: GABS 180800Z 08003KT CAVOK 25/00 Q1013 NOSIG
Conditions at: GABS (BAMAKO/SENOU (MI, ML) observed 0800 UTC 18 February 2019
Temperature: 25.0°C (77°F)
Dewpoint: 0.0°C (32°F) [RH = 19%]
Pressure (altimeter): 29.91 inches Hg (1013.0 mb)
Winds: from the E (80 degrees) at 3 MPH (3 knots; 1.5 m/s)
Visibility: 6 or more miles (10+ km)
Ceiling: ceiling and visibility are OK
Clouds: unknown
Weather: no significant weather observed at this time

METAR text: GABS 180730Z 07006KT CAVOK 24/00 Q1013 NOSIG
Conditions at: GABS (BAMAKO/SENOU (MI, ML) observed 0730 UTC 18 February 2019
Temperature: 24.0°C (75°F)
Dewpoint: 0.0°C (32°F) [RH = 20%]
Pressure (altimeter): 29.91 inches Hg (1013.0 mb)
Winds: from the ENE (70 degrees) at 7 MPH (6 knots; 3.1 m/s)
Visibility: 6 or more miles (10+ km)
Ceiling: ceiling and visibility are OK
Clouds: unknown
Weather: no significant weather observed at this time

METAR text: GABS 180700Z 07006KT CAVOK 24/M01 Q1013 NOSIG
Conditions at: GABS (BAMAKO/SENOU (MI, ML) observed 0700 UTC 18 February 2019
Temperature: 24.0°C (75°F)
Dewpoint: -1.0°C (30°F) [RH = 19%]
Pressure (altimeter): 29.91 inches Hg (1013.0 mb)
Winds: from the ENE (70 degrees) at 7 MPH (6 knots; 3.1 m/s)
Visibility: 6 or more miles (10+ km)
Ceiling: ceiling and visibility are OK
Clouds: unknown
Weather: no significant weather observed at this time

METAR text: GABS 180630Z 07005KT CAVOK 23/00 Q1012 NOSIG
Conditions at: GABS (BAMAKO/SENOU (MI, ML) observed 0630 UTC 18 February 2019
Temperature: 23.0°C (73°F)
Dewpoint: 0.0°C (32°F) [RH = 22%]
Pressure (altimeter): 29.88 inches Hg (1012.0 mb)
Winds: from the ENE (70 degrees) at 6 MPH (5 knots; 2.6 m/s)
Visibility: 6 or more miles (10+ km)
Ceiling: ceiling and visibility are OK
Clouds: unknown
Weather: no significant weather observed at this time

METAR text: GABS 180600Z 06006KT 8000 NSC 23/00 Q1012 NOSIG
Conditions at: GABS (BAMAKO/SENOU (MI, ML) observed 0600 UTC 18 February 2019
Temperature: 23.0°C (73°F)
Dewpoint: 0.0°C (32°F) [RH = 22%]
Pressure (altimeter): 29.88 inches Hg (1012.0 mb)
Winds: from the ENE (60 degrees) at 7 MPH (6 knots; 3.1 m/s)
Visibility: 5 miles ( 8 km)
Ceiling: at least 12,000 feet AGL
Clouds: sky clear below 12,000 feet AGL
Weather: no significant weather observed at this time

METAR text: GABS 180530Z 06004KT 8000 NSC 23/01 Q1012 NOSIG
Conditions at: GABS (BAMAKO/SENOU (MI, ML) observed 0530 UTC 18 February 2019
Temperature: 23.0°C (73°F)
Dewpoint: 1.0°C (34°F) [RH = 23%]
Pressure (altimeter): 29.88 inches Hg (1012.0 mb)
Winds: from the ENE (60 degrees) at 5 MPH (4 knots; 2.1 m/s)
Visibility: 5 miles ( 8 km)
Ceiling: at least 12,000 feet AGL
Clouds: sky clear below 12,000 feet AGL
Weather: no significant weather observed at this time

METAR text: GABS 180430Z 01005KT 8000 NSC 22/03 Q1012 NOSIG
Conditions at: GABS (BAMAKO/SENOU (MI, ML) observed 0430 UTC 18 February 2019
Temperature: 22.0°C (72°F)
Dewpoint: 3.0°C (37°F) [RH = 29%]
Pressure (altimeter): 29.88 inches Hg (1012.0 mb)
Winds: from the N (10 degrees) at 6 MPH (5 knots; 2.6 m/s)
Visibility: 5 miles ( 8 km)
Ceiling: at least 12,000 feet AGL
Clouds: sky clear below 12,000 feet AGL
Weather: no significant weather observed at this time

METAR text: GABS 180400Z 05005KT CAVOK 23/02 Q1012 NOSIG
Conditions at: GABS (BAMAKO/SENOU (MI, ML) observed 0400 UTC 18 February 2019
Temperature: 23.0°C (73°F)
Dewpoint: 2.0°C (36°F) [RH = 25%]
Pressure (altimeter): 29.88 inches Hg (1012.0 mb)
Winds: from the NE (50 degrees) at 6 MPH (5 knots; 2.6 m/s)
Visibility: 6 or more miles (10+ km)
Ceiling: ceiling and visibility are OK
Clouds: unknown
Weather: no significant weather observed at this time

METAR text: GABS 180330Z 03003KT CAVOK 24/02 Q1012 NOSIG
Conditions at: GABS (BAMAKO/SENOU (MI, ML) observed 0330 UTC 18 February 2019
Temperature: 24.0°C (75°F)
Dewpoint: 2.0°C (36°F) [RH = 24%]
Pressure (altimeter): 29.88 inches Hg (1012.0 mb)
Winds: from the NNE (30 degrees) at 3 MPH (3 knots; 1.5 m/s)
Visibility: 6 or more miles (10+ km)
Ceiling: ceiling and visibility are OK
Clouds: unknown
Weather: no significant weather observed at this time

METAR text: GABS 180300Z 03004KT CAVOK 25/02 Q1012 NOSIG
Conditions at: GABS (BAMAKO/SENOU (MI, ML) observed 0300 UTC 18 February 2019
Temperature: 25.0°C (77°F)
Dewpoint: 2.0°C (36°F) [RH = 22%]
Pressure (altimeter): 29.88 inches Hg (1012.0 mb)
Winds: from the NNE (30 degrees) at 5 MPH (4 knots; 2.1 m/s)
Visibility: 6 or more miles (10+ km)
Ceiling: ceiling and visibility are OK
Clouds: unknown
Weather: no significant weather observed at this time

METAR text: GABS 180230Z 06005KT CAVOK 25/00 Q1012 NOSIG
Conditions at: GABS (BAMAKO/SENOU (MI, ML) observed 0230 UTC 18 February 2019
Temperature: 25.0°C (77°F)
Dewpoint: 0.0°C (32°F) [RH = 19%]
Pressure (altimeter): 29.88 inches Hg (1012.0 mb)
Winds: from the ENE (60 degrees) at 6 MPH (5 knots; 2.6 m/s)
Visibility: 6 or more miles (10+ km)
Ceiling: ceiling and visibility are OK
Clouds: unknown
Weather: no significant weather observed at this time

METAR text: GABS 180200Z 09005KT CAVOK 26/M01 Q1013 NOSIG
Conditions at: GABS (BAMAKO/SENOU (MI, ML) observed 0200 UTC 18 February 2019
Temperature: 26.0°C (79°F)
Dewpoint: -1.0°C (30°F) [RH = 17%]
Pressure (altimeter): 29.91 inches Hg (1013.0 mb)
Winds: from the E (90 degrees) at 6 MPH (5 knots; 2.6 m/s)
Visibility: 6 or more miles (10+ km)
Ceiling: ceiling and visibility are OK
Clouds: unknown
Weather: no significant weather observed at this time

METAR text: GABS 180130Z 08006KT CAVOK 27/00 Q1013 NOSIG
Conditions at: GABS (BAMAKO/SENOU (MI, ML) observed 0130 UTC 18 February 2019
Temperature: 27.0°C (81°F)
Dewpoint: 0.0°C (32°F) [RH = 17%]
Pressure (altimeter): 29.91 inches Hg (1013.0 mb)
Winds: from the E (80 degrees) at 7 MPH (6 knots; 3.1 m/s)
Visibility: 6 or more miles (10+ km)
Ceiling: ceiling and visibility are OK
Clouds: unknown
Weather: no significant weather observed at this time

METAR text: GABS 180100Z 08006KT CAVOK 27/01 Q1013 NOSIG
Conditions at: GABS (BAMAKO/SENOU (MI, ML) observed 0100 UTC 18 February 2019
Temperature: 27.0°C (81°F)
Dewpoint: 1.0°C (34°F) [RH = 18%]
Pressure (altimeter): 29.91 inches Hg (1013.0 mb)
Winds: from the E (80 degrees) at 7 MPH (6 knots; 3.1 m/s)
Visibility: 6 or more miles (10+ km)
Ceiling: ceiling and visibility are OK
Clouds: unknown
Weather: no significant weather observed at this time

METAR text: GABS 180030Z 09006KT 8000 NSC 27/02 Q1014 NOSIG
Conditions at: GABS (BAMAKO/SENOU (MI, ML) observed 0030 UTC 18 February 2019
Temperature: 27.0°C (81°F)
Dewpoint: 2.0°C (36°F) [RH = 20%]
Pressure (altimeter): 29.94 inches Hg (1014.0 mb)
Winds: from the E (90 degrees) at 7 MPH (6 knots; 3.1 m/s)
Visibility: 5 miles ( 8 km)
Ceiling: at least 12,000 feet AGL
Clouds: sky clear below 12,000 feet AGL
Weather: no significant weather observed at this time

METAR text: GABS 180000Z 08006KT 8000 NSC 29/01 Q1014 NOSIG
Conditions at: GABS (BAMAKO/SENOU (MI, ML) observed 0000 UTC 18 February 2019
Temperature: 29.0°C (84°F)
Dewpoint: 1.0°C (34°F) [RH = 16%]
Pressure (altimeter): 29.94 inches Hg (1014.0 mb)
Winds: from the E (80 degrees) at 7 MPH (6 knots; 3.1 m/s)
Visibility: 5 miles ( 8 km)
Ceiling: at least 12,000 feet AGL
Clouds: sky clear below 12,000 feet AGL
Weather: no significant weather observed at this time

METAR text: GABS 172330Z 08004KT 8000 NSC 28/02 Q1014 NOSIG
Conditions at: GABS (BAMAKO/SENOU (MI, ML) observed 2330 UTC 17 February 2019
Temperature: 28.0°C (82°F)
Dewpoint: 2.0°C (36°F) [RH = 19%]
Pressure (altimeter): 29.94 inches Hg (1014.0 mb)
Winds: from the E (80 degrees) at 5 MPH (4 knots; 2.1 m/s)
Visibility: 5 miles ( 8 km)
Ceiling: at least 12,000 feet AGL
Clouds: sky clear below 12,000 feet AGL
Weather: no significant weather observed at this time

METAR text: GABS 172300Z 09006KT 8000 NSC 28/01 Q1014 NOSIG
Conditions at: GABS (BAMAKO/SENOU (MI, ML) observed 2300 UTC 17 February 2019
Temperature: 28.0°C (82°F)
Dewpoint: 1.0°C (34°F) [RH = 17%]
Pressure (altimeter): 29.94 inches Hg (1014.0 mb)
Winds: from the E (90 degrees) at 7 MPH (6 knots; 3.1 m/s)
Visibility: 5 miles ( 8 km)
Ceiling: at least 12,000 feet AGL
Clouds: sky clear below 12,000 feet AGL
Weather: no significant weather observed at this time

METAR text: GABS 172230Z 09006KT 8000 NSC 29/02 Q1014 NOSIG
Conditions at: GABS (BAMAKO/SENOU (MI, ML) observed 2230 UTC 17 February 2019
Temperature: 29.0°C (84°F)
Dewpoint: 2.0°C (36°F) [RH = 18%]
Pressure (altimeter): 29.94 inches Hg (1014.0 mb)
Winds: from the E (90 degrees) at 7 MPH (6 knots; 3.1 m/s)
Visibility: 5 miles ( 8 km)
Ceiling: at least 12,000 feet AGL
Clouds: sky clear below 12,000 feet AGL
Weather: no significant weather observed at this time

METAR text: GABS 172130Z 00000KT 8000 NSC 27/03 Q1014 NOSIG
Conditions at: GABS (BAMAKO/SENOU (MI, ML) observed 2130 UTC 17 February 2019
Temperature: 27.0°C (81°F)
Dewpoint: 3.0°C (37°F) [RH = 21%]
Pressure (altimeter): 29.94 inches Hg (1014.0 mb)
Winds: calm
Visibility: 5 miles ( 8 km)
Ceiling: at least 12,000 feet AGL
Clouds: sky clear below 12,000 feet AGL
Weather: no significant weather observed at this time

METAR text: GABS 172100Z 00000KT 8000 NSC 28/03 Q1013 NOSIG
Conditions at: GABS (BAMAKO/SENOU (MI, ML) observed 2100 UTC 17 February 2019
Temperature: 28.0°C (82°F)
Dewpoint: 3.0°C (37°F) [RH = 20%]
Pressure (altimeter): 29.91 inches Hg (1013.0 mb)
Winds: calm
Visibility: 5 miles ( 8 km)
Ceiling: at least 12,000 feet AGL
Clouds: sky clear below 12,000 feet AGL
Weather: no significant weather observed at this time

METAR text: GABS 172030Z 00000KT 8000 NSC 28/03 Q1013 NOSIG
Conditions at: GABS (BAMAKO/SENOU (MI, ML) observed 2030 UTC 17 February 2019
Temperature: 28.0°C (82°F)
Dewpoint: 3.0°C (37°F) [RH = 20%]
Pressure (altimeter): 29.91 inches Hg (1013.0 mb)
Winds: calm
Visibility: 5 miles ( 8 km)
Ceiling: at least 12,000 feet AGL
Clouds: sky clear below 12,000 feet AGL
Weather: no significant weather observed at this time

METAR text: GABS 172000Z VRB01KT 8000 NSC 29/03 Q1013 NOSIG
Conditions at: GABS (BAMAKO/SENOU (MI, ML) observed 2000 UTC 17 February 2019
Temperature: 29.0°C (84°F)
Dewpoint: 3.0°C (37°F) [RH = 19%]
Pressure (altimeter): 29.91 inches Hg (1013.0 mb)
Winds: variable direction winds at 1 MPH (1 knots; 0.5 m/s)
Visibility: 5 miles ( 8 km)
Ceiling: at least 12,000 feet AGL
Clouds: sky clear below 12,000 feet AGL
Weather: no significant weather observed at this time

METAR text: GABS 171930Z VRB01KT 8000 NSC 30/04 Q1013 NOSIG
Conditions at: GABS (BAMAKO/SENOU (MI, ML) observed 1930 UTC 17 February 2019
Temperature: 30.0°C (86°F)
Dewpoint: 4.0°C (39°F) [RH = 19%]
Pressure (altimeter): 29.91 inches Hg (1013.0 mb)
Winds: variable direction winds at 1 MPH (1 knots; 0.5 m/s)
Visibility: 5 miles ( 8 km)
Ceiling: at least 12,000 feet AGL
Clouds: sky clear below 12,000 feet AGL
Weather: no significant weather observed at this time

METAR text: GABS 171900Z VRB02KT 8000 NSC 33/03 Q1012 NOSIG
Conditions at: GABS (BAMAKO/SENOU (MI, ML) observed 1900 UTC 17 February 2019
Temperature: 33.0°C (91°F)
Dewpoint: 3.0°C (37°F) [RH = 15%]
Pressure (altimeter): 29.88 inches Hg (1012.0 mb)
Winds: variable direction winds at 2 MPH (2 knots; 1.0 m/s)
Visibility: 5 miles ( 8 km)
Ceiling: at least 12,000 feet AGL
Clouds: sky clear below 12,000 feet AGL
Weather: no significant weather observed at this time

METAR text: GABS 171830Z 25003KT 230V290 CAVOK 35/01 Q1012 NOSIG
Conditions at: GABS (BAMAKO/SENOU (MI, ML) observed 1830 UTC 17 February 2019
Temperature: 35.0°C (95°F)
Dewpoint: 1.0°C (34°F) [RH = 12%]
Pressure (altimeter): 29.88 inches Hg (1012.0 mb)
Winds: from the WSW (250 degrees) at 3 MPH (3 knots; 1.5 m/s)
Visibility: 6 or more miles (10+ km)
Ceiling: ceiling and visibility are OK
Clouds: unknown
Weather: no significant weather observed at this time

METAR text: GABS 171800Z 25004KT 220V280 CAVOK 37/M01 Q1011 NOSIG
Conditions at: GABS (BAMAKO/SENOU (MI, ML) observed 1800 UTC 17 February 2019
Temperature: 37.0°C (99°F)
Dewpoint: -1.0°C (30°F) [RH =  9%]
Pressure (altimeter): 29.85 inches Hg (1011.0 mb)
Winds: from the WSW (250 degrees) at 5 MPH (4 knots; 2.1 m/s)
Visibility: 6 or more miles (10+ km)
Ceiling: ceiling and visibility are OK
Clouds: unknown
Weather: no significant weather observed at this time

METAR text: GABS 171730Z VRB03KT CAVOK 38/M02 Q1011 NOSIG
Conditions at: GABS (BAMAKO/SENOU (MI, ML) observed 1730 UTC 17 February 2019
Temperature: 38.0°C (100°F)
Dewpoint: -2.0°C (28°F) [RH =  8%]
Pressure (altimeter): 29.85 inches Hg (1011.0 mb)
Winds: variable direction winds at 3 MPH (3 knots; 1.5 m/s)
Visibility: 6 or more miles (10+ km)
Ceiling: ceiling and visibility are OK
Clouds: unknown
Weather: no significant weather observed at this time

METAR text: GABS 171700Z VRB02KT CAVOK 38/M02 Q1011 NOSIG
Conditions at: GABS (BAMAKO/SENOU (MI, ML) observed 1700 UTC 17 February 2019
Temperature: 38.0°C (100°F)
Dewpoint: -2.0°C (28°F) [RH =  8%]
Pressure (altimeter): 29.85 inches Hg (1011.0 mb)
Winds: variable direction winds at 2 MPH (2 knots; 1.0 m/s)
Visibility: 6 or more miles (10+ km)
Ceiling: ceiling and visibility are OK
Clouds: unknown
Weather: no significant weather observed at this time

METAR text: GABS 171630Z VRB04KT CAVOK 38/M02 Q1011 NOSIG
Conditions at: GABS (BAMAKO/SENOU (MI, ML) observed 1630 UTC 17 February 2019
Temperature: 38.0°C (100°F)
Dewpoint: -2.0°C (28°F) [RH =  8%]
Pressure (altimeter): 29.85 inches Hg (1011.0 mb)
Winds: variable direction winds at 5 MPH (4 knots; 2.1 m/s)
Visibility: 6 or more miles (10+ km)
Ceiling: ceiling and visibility are OK
Clouds: unknown
Weather: no significant weather observed at this time

METAR text: GABS 171600Z 21005KT 150V250 CAVOK 38/M02 Q1011 NOSIG
Conditions at: GABS (BAMAKO/SENOU (MI, ML) observed 1600 UTC 17 February 2019
Temperature: 38.0°C (100°F)
Dewpoint: -2.0°C (28°F) [RH =  8%]
Pressure (altimeter): 29.85 inches Hg (1011.0 mb)
Winds: from the SSW (210 degrees) at 6 MPH (5 knots; 2.6 m/s)
Visibility: 6 or more miles (10+ km)
Ceiling: ceiling and visibility are OK
Clouds: unknown
Weather: no significant weather observed at this time

METAR text: GABS 171530Z VRB04KT CAVOK 38/M02 Q1011 NOSIG
Conditions at: GABS (BAMAKO/SENOU (MI, ML) observed 1530 UTC 17 February 2019
Temperature: 38.0°C (100°F)
Dewpoint: -2.0°C (28°F) [RH =  8%]
Pressure (altimeter): 29.85 inches Hg (1011.0 mb)
Winds: variable direction winds at 5 MPH (4 knots; 2.1 m/s)
Visibility: 6 or more miles (10+ km)
Ceiling: ceiling and visibility are OK
Clouds: unknown
Weather: no significant weather observed at this time

METAR text: GABS 171500Z VRB05KT CAVOK 38/M02 Q1011 NOSIG
Conditions at: GABS (BAMAKO/SENOU (MI, ML) observed 1500 UTC 17 February 2019
Temperature: 38.0°C (100°F)
Dewpoint: -2.0°C (28°F) [RH =  8%]
Pressure (altimeter): 29.85 inches Hg (1011.0 mb)
Winds: variable direction winds at 6 MPH (5 knots; 2.6 m/s)
Visibility: 6 or more miles (10+ km)
Ceiling: ceiling and visibility are OK
Clouds: unknown
Weather: no significant weather observed at this time

METAR text: GABS 171430Z 24007KT 170V280 8000 NSC 38/M02 Q1012 NOSIG
Conditions at: GABS (BAMAKO/SENOU (MI, ML) observed 1430 UTC 17 February 2019
Temperature: 38.0°C (100°F)
Dewpoint: -2.0°C (28°F) [RH =  8%]
Pressure (altimeter): 29.88 inches Hg (1012.0 mb)
Winds: from the WSW (240 degrees) at 8 MPH (7 knots; 3.6 m/s)
Visibility: 5 miles ( 8 km)
Ceiling: at least 12,000 feet AGL
Clouds: sky clear below 12,000 feet AGL
Weather: no significant weather observed at this time

METAR text: GABS 171400Z VRB04KT 8000 NSC 37/M02 Q1012 NOSIG
Conditions at: GABS (BAMAKO/SENOU (MI, ML) observed 1400 UTC 17 February 2019
Temperature: 37.0°C (99°F)
Dewpoint: -2.0°C (28°F) [RH =  8%]
Pressure (altimeter): 29.88 inches Hg (1012.0 mb)
Winds: variable direction winds at 5 MPH (4 knots; 2.1 m/s)
Visibility: 5 miles ( 8 km)
Ceiling: at least 12,000 feet AGL
Clouds: sky clear below 12,000 feet AGL
Weather: no significant weather observed at this time

METAR text: GABS 171330Z 18006KT 110V230 8000 NSC 37/M02 Q1013 NOSIG
Conditions at: GABS (BAMAKO/SENOU (MI, ML) observed 1330 UTC 17 February 2019
Temperature: 37.0°C (99°F)
Dewpoint: -2.0°C (28°F) [RH =  8%]
Pressure (altimeter): 29.91 inches Hg (1013.0 mb)
Winds: from the S (180 degrees) at 7 MPH (6 knots; 3.1 m/s)
Visibility: 5 miles ( 8 km)
Ceiling: at least 12,000 feet AGL
Clouds: sky clear below 12,000 feet AGL
Weather: no significant weather observed at this time

METAR text: GABS 171300Z 14005KT 090V240 8000 NSC 37/M03 Q1014 NOSIG
Conditions at: GABS (BAMAKO/SENOU (MI, ML) observed 1300 UTC 17 February 2019
Temperature: 37.0°C (99°F)
Dewpoint: -3.0°C (27°F) [RH =  8%]
Pressure (altimeter): 29.94 inches Hg (1014.0 mb)
Winds: from the SE (140 degrees) at 6 MPH (5 knots; 2.6 m/s)
Visibility: 5 miles ( 8 km)
Ceiling: at least 12,000 feet AGL
Clouds: sky clear below 12,000 feet AGL
Weather: no significant weather observed at this time

METAR text: GABS 171230Z VRB04KT 8000 NSC 37/M03 Q1014 NOSIG
Conditions at: GABS (BAMAKO/SENOU (MI, ML) observed 1230 UTC 17 February 2019
Temperature: 37.0°C (99°F)
Dewpoint: -3.0°C (27°F) [RH =  8%]
Pressure (altimeter): 29.94 inches Hg (1014.0 mb)
Winds: variable direction winds at 5 MPH (4 knots; 2.1 m/s)
Visibility: 5 miles ( 8 km)
Ceiling: at least 12,000 feet AGL
Clouds: sky clear below 12,000 feet AGL
Weather: no significant weather observed at this time

METAR text: GABS 171200Z 13006KT 050V190 8000 NSC 36/M04 Q1015 NOSIG
Conditions at: GABS (BAMAKO/SENOU (MI, ML) observed 1200 UTC 17 February 2019
Temperature: 36.0°C (97°F)
Dewpoint: -4.0°C (25°F) [RH =  8%]
Pressure (altimeter): 29.97 inches Hg (1015.0 mb)
Winds: from the SE (130 degrees) at 7 MPH (6 knots; 3.1 m/s)
Visibility: 5 miles ( 8 km)
Ceiling: at least 12,000 feet AGL
Clouds: sky clear below 12,000 feet AGL
Weather: no significant weather observed at this time

METAR text: GABS 171130Z 10006KT 050V160 8000 NSC 34/M03 Q1015 NOSIG
Conditions at: GABS (BAMAKO/SENOU (MI, ML) observed 1130 UTC 17 February 2019
Temperature: 34.0°C (93°F)
Dewpoint: -3.0°C (27°F) [RH =  9%]
Pressure (altimeter): 29.97 inches Hg (1015.0 mb)
Winds: from the E (100 degrees) at 7 MPH (6 knots; 3.1 m/s)
Visibility: 5 miles ( 8 km)
Ceiling: at least 12,000 feet AGL
Clouds: sky clear below 12,000 feet AGL
Weather: no significant weather observed at this time

METAR text: GABS 171100Z 12007KT 080V160 8000 NSC 33/M04 Q1015 NOSIG
Conditions at: GABS (BAMAKO/SENOU (MI, ML) observed 1100 UTC 17 February 2019
Temperature: 33.0°C (91°F)
Dewpoint: -4.0°C (25°F) [RH =  9%]
Pressure (altimeter): 29.97 inches Hg (1015.0 mb)
Winds: from the ESE (120 degrees) at 8 MPH (7 knots; 3.6 m/s)
Visibility: 5 miles ( 8 km)
Ceiling: at least 12,000 feet AGL
Clouds: sky clear below 12,000 feet AGL
Weather: no significant weather observed at this time

METAR text: GABS 171030Z 10006KT 060V140 8000 NSC 32/M03 Q1015 NOSIG
Conditions at: GABS (BAMAKO/SENOU (MI, ML) observed 1030 UTC 17 February 2019
Temperature: 32.0°C (90°F)
Dewpoint: -3.0°C (27°F) [RH = 10%]
Pressure (altimeter): 29.97 inches Hg (1015.0 mb)
Winds: from the E (100 degrees) at 7 MPH (6 knots; 3.1 m/s)
Visibility: 5 miles ( 8 km)
Ceiling: at least 12,000 feet AGL
Clouds: sky clear below 12,000 feet AGL
Weather: no significant weather observed at this time

METAR text: GABS 171000Z 10006KT 060V140 8000 NSC 30/M02 Q1015 NOSIG
Conditions at: GABS (BAMAKO/SENOU (MI, ML) observed 1000 UTC 17 February 2019
Temperature: 30.0°C (86°F)
Dewpoint: -2.0°C (28°F) [RH = 12%]
Pressure (altimeter): 29.97 inches Hg (1015.0 mb)
Winds: from the E (100 degrees) at 7 MPH (6 knots; 3.1 m/s)
Visibility: 5 miles ( 8 km)
Ceiling: at least 12,000 feet AGL
Clouds: sky clear below 12,000 feet AGL
Weather: no significant weather observed at this time

METAR text: GABS 170900Z 09007KT 050V120 8000 NSC 27/M03 Q1015 NOSIG
Conditions at: GABS (BAMAKO/SENOU (MI, ML) observed 0900 UTC 17 February 2019
Temperature: 27.0°C (81°F)
Dewpoint: -3.0°C (27°F) [RH = 14%]
Pressure (altimeter): 29.97 inches Hg (1015.0 mb)
Winds: from the E (90 degrees) at 8 MPH (7 knots; 3.6 m/s)
Visibility: 5 miles ( 8 km)
Ceiling: at least 12,000 feet AGL
Clouds: sky clear below 12,000 feet AGL
Weather: no significant weather observed at this time

METAR text: GABS 170830Z 06007KT 8000 NSC 25/M01 Q1015 NOSIG
Conditions at: GABS (BAMAKO/SENOU (MI, ML) observed 0830 UTC 17 February 2019
Temperature: 25.0°C (77°F)
Dewpoint: -1.0°C (30°F) [RH = 18%]
Pressure (altimeter): 29.97 inches Hg (1015.0 mb)
Winds: from the ENE (60 degrees) at 8 MPH (7 knots; 3.6 m/s)
Visibility: 5 miles ( 8 km)
Ceiling: at least 12,000 feet AGL
Clouds: sky clear below 12,000 feet AGL
Weather: no significant weather observed at this time

METAR text: GABS 170800Z 04003KT 8000 NSC 23/M01 Q1014 NOSIG
Conditions at: GABS (BAMAKO/SENOU (MI, ML) observed 0800 UTC 17 February 2019
Temperature: 23.0°C (73°F)
Dewpoint: -1.0°C (30°F) [RH = 20%]
Pressure (altimeter): 29.94 inches Hg (1014.0 mb)
Winds: from the NE (40 degrees) at 3 MPH (3 knots; 1.5 m/s)
Visibility: 5 miles ( 8 km)
Ceiling: at least 12,000 feet AGL
Clouds: sky clear below 12,000 feet AGL
Weather: no significant weather observed at this time

METAR text: GABS 170730Z 03004KT 8000 NSC 21/00 Q1014 NOSIG
Conditions at: GABS (BAMAKO/SENOU (MI, ML) observed 0730 UTC 17 February 2019
Temperature: 21.0°C (70°F)
Dewpoint: 0.0°C (32°F) [RH = 25%]
Pressure (altimeter): 29.94 inches Hg (1014.0 mb)
Winds: from the NNE (30 degrees) at 5 MPH (4 knots; 2.1 m/s)
Visibility: 5 miles ( 8 km)
Ceiling: at least 12,000 feet AGL
Clouds: sky clear below 12,000 feet AGL
Weather: no significant weather observed at this time

METAR text: GABS 170700Z 06005KT CAVOK 22/M01 Q1014 NOSIG
Conditions at: GABS (BAMAKO/SENOU (MI, ML) observed 0700 UTC 17 February 2019
Temperature: 22.0°C (72°F)
Dewpoint: -1.0°C (30°F) [RH = 21%]
Pressure (altimeter): 29.94 inches Hg (1014.0 mb)
Winds: from the ENE (60 degrees) at 6 MPH (5 knots; 2.6 m/s)
Visibility: 6 or more miles (10+ km)
Ceiling: ceiling and visibility are OK
Clouds: unknown
Weather: no significant weather observed at this time

METAR text: GABS 170630Z 04004KT CAVOK 22/M01 Q1014 NOSIG
Conditions at: GABS (BAMAKO/SENOU (MI, ML) observed 0630 UTC 17 February 2019
Temperature: 22.0°C (72°F)
Dewpoint: -1.0°C (30°F) [RH = 21%]
Pressure (altimeter): 29.94 inches Hg (1014.0 mb)
Winds: from the NE (40 degrees) at 5 MPH (4 knots; 2.1 m/s)
Visibility: 6 or more miles (10+ km)
Ceiling: ceiling and visibility are OK
Clouds: unknown
Weather: no significant weather observed at this time

METAR text: GABS 170600Z 09004KT CAVOK 22/M02 Q1013 NOSIG
Conditions at: GABS (BAMAKO/SENOU (MI, ML) observed 0600 UTC 17 February 2019
Temperature: 22.0°C (72°F)
Dewpoint: -2.0°C (28°F) [RH = 20%]
Pressure (altimeter): 29.91 inches Hg (1013.0 mb)
Winds: from the E (90 degrees) at 5 MPH (4 knots; 2.1 m/s)
Visibility: 6 or more miles (10+ km)
Ceiling: ceiling and visibility are OK
Clouds: unknown
Weather: no significant weather observed at this time

METAR text: GABS 170530Z 06004KT CAVOK 22/M01 Q1013 NOSIG
Conditions at: GABS (BAMAKO/SENOU (MI, ML) observed 0530 UTC 17 February 2019
Temperature: 22.0°C (72°F)
Dewpoint: -1.0°C (30°F) [RH = 21%]
Pressure (altimeter): 29.91 inches Hg (1013.0 mb)
Winds: from the ENE (60 degrees) at 5 MPH (4 knots; 2.1 m/s)
Visibility: 6 or more miles (10+ km)
Ceiling: ceiling and visibility are OK
Clouds: unknown
Weather: no significant weather observed at this time

METAR text: GABS 170500Z 07005KT CAVOK 23/M02 Q1013 NOSIG
Conditions at: GABS (BAMAKO/SENOU (MI, ML) observed 0500 UTC 17 February 2019
Temperature: 23.0°C (73°F)
Dewpoint: -2.0°C (28°F) [RH = 19%]
Pressure (altimeter): 29.91 inches Hg (1013.0 mb)
Winds: from the ENE (70 degrees) at 6 MPH (5 knots; 2.6 m/s)
Visibility: 6 or more miles (10+ km)
Ceiling: ceiling and visibility are OK
Clouds: unknown
Weather: no significant weather observed at this time

METAR text: GABS 170430Z 09005KT CAVOK 25/M02 Q1013 NOSIG
Conditions at: GABS (BAMAKO/SENOU (MI, ML) observed 0430 UTC 17 February 2019
Temperature: 25.0°C (77°F)
Dewpoint: -2.0°C (28°F) [RH = 17%]
Pressure (altimeter): 29.91 inches Hg (1013.0 mb)
Winds: from the E (90 degrees) at 6 MPH (5 knots; 2.6 m/s)
Visibility: 6 or more miles (10+ km)
Ceiling: ceiling and visibility are OK
Clouds: unknown
Weather: no significant weather observed at this time

METAR text: GABS 170400Z 09006KT CAVOK 26/M03 Q1013 NOSIG
Conditions at: GABS (BAMAKO/SENOU (MI, ML) observed 0400 UTC 17 February 2019
Temperature: 26.0°C (79°F)
Dewpoint: -3.0°C (27°F) [RH = 15%]
Pressure (altimeter): 29.91 inches Hg (1013.0 mb)
Winds: from the E (90 degrees) at 7 MPH (6 knots; 3.1 m/s)
Visibility: 6 or more miles (10+ km)
Ceiling: ceiling and visibility are OK
Clouds: unknown
Weather: no significant weather observed at this time

METAR text: GABS 170330Z 08006KT CAVOK 26/M03 Q1013 NOSIG
Conditions at: GABS (BAMAKO/SENOU (MI, ML) observed 0330 UTC 17 February 2019
Temperature: 26.0°C (79°F)
Dewpoint: -3.0°C (27°F) [RH = 15%]
Pressure (altimeter): 29.91 inches Hg (1013.0 mb)
Winds: from the E (80 degrees) at 7 MPH (6 knots; 3.1 m/s)
Visibility: 6 or more miles (10+ km)
Ceiling: ceiling and visibility are OK
Clouds: unknown
Weather: no significant weather observed at this time

METAR text: GABS 170300Z 08006KT CAVOK 26/M03 Q1013 NOSIG
Conditions at: GABS (BAMAKO/SENOU (MI, ML) observed 0300 UTC 17 February 2019
Temperature: 26.0°C (79°F)
Dewpoint: -3.0°C (27°F) [RH = 15%]
Pressure (altimeter): 29.91 inches Hg (1013.0 mb)
Winds: from the E (80 degrees) at 7 MPH (6 knots; 3.1 m/s)
Visibility: 6 or more miles (10+ km)
Ceiling: ceiling and visibility are OK
Clouds: unknown
Weather: no significant weather observed at this time

METAR text: GABS 170230Z 10006KT CAVOK 26/M02 Q1013 NOSIG
Conditions at: GABS (BAMAKO/SENOU (MI, ML) observed 0230 UTC 17 February 2019
Temperature: 26.0°C (79°F)
Dewpoint: -2.0°C (28°F) [RH = 16%]
Pressure (altimeter): 29.91 inches Hg (1013.0 mb)
Winds: from the E (100 degrees) at 7 MPH (6 knots; 3.1 m/s)
Visibility: 6 or more miles (10+ km)
Ceiling: ceiling and visibility are OK
Clouds: unknown
Weather: no significant weather observed at this time

METAR text: GABS 170200Z 08005KT CAVOK 26/M02 Q1014 NOSIG
Conditions at: GABS (BAMAKO/SENOU (MI, ML) observed 0200 UTC 17 February 2019
Temperature: 26.0°C (79°F)
Dewpoint: -2.0°C (28°F) [RH = 16%]
Pressure (altimeter): 29.94 inches Hg (1014.0 mb)
Winds: from the E (80 degrees) at 6 MPH (5 knots; 2.6 m/s)
Visibility: 6 or more miles (10+ km)
Ceiling: ceiling and visibility are OK
Clouds: unknown
Weather: no significant weather observed at this time

METAR text: GABS 170130Z 08005KT CAVOK 27/M02 Q1014 NOSIG
Conditions at: GABS (BAMAKO/SENOU (MI, ML) observed 0130 UTC 17 February 2019
Temperature: 27.0°C (81°F)
Dewpoint: -2.0°C (28°F) [RH = 15%]
Pressure (altimeter): 29.94 inches Hg (1014.0 mb)
Winds: from the E (80 degrees) at 6 MPH (5 knots; 2.6 m/s)
Visibility: 6 or more miles (10+ km)
Ceiling: ceiling and visibility are OK
Clouds: unknown
Weather: no significant weather observed at this time

METAR text: GABS 170100Z 08005KT CAVOK 27/M02 Q1014 NOSIG
Conditions at: GABS (BAMAKO/SENOU (MI, ML) observed 0100 UTC 17 February 2019
Temperature: 27.0°C (81°F)
Dewpoint: -2.0°C (28°F) [RH = 15%]
Pressure (altimeter): 29.94 inches Hg (1014.0 mb)
Winds: from the E (80 degrees) at 6 MPH (5 knots; 2.6 m/s)
Visibility: 6 or more miles (10+ km)
Ceiling: ceiling and visibility are OK
Clouds: unknown
Weather: no significant weather observed at this time

METAR text: GABS 170030Z 07006KT CAVOK 26/M01 Q1015 NOSIG
Conditions at: GABS (BAMAKO/SENOU (MI, ML) observed 0030 UTC 17 February 2019
Temperature: 26.0°C (79°F)
Dewpoint: -1.0°C (30°F) [RH = 17%]
Pressure (altimeter): 29.97 inches Hg (1015.0 mb)
Winds: from the ENE (70 degrees) at 7 MPH (6 knots; 3.1 m/s)
Visibility: 6 or more miles (10+ km)
Ceiling: ceiling and visibility are OK
Clouds: unknown
Weather: no significant weather observed at this time

METAR text: GABS 170000Z 07006KT CAVOK 27/M01 Q1015 NOSIG
Conditions at: GABS (BAMAKO/SENOU (MI, ML) observed 0000 UTC 17 February 2019
Temperature: 27.0°C (81°F)
Dewpoint: -1.0°C (30°F) [RH = 16%]
Pressure (altimeter): 29.97 inches Hg (1015.0 mb)
Winds: from the ENE (70 degrees) at 7 MPH (6 knots; 3.1 m/s)
Visibility: 6 or more miles (10+ km)
Ceiling: ceiling and visibility are OK
Clouds: unknown
Weather: no significant weather observed at this time

METAR text: GABS 162330Z 08005KT CAVOK 28/00 Q1015 NOSIG
Conditions at: GABS (BAMAKO/SENOU (MI, ML) observed 2330 UTC 16 February 2019
Temperature: 28.0°C (82°F)
Dewpoint: 0.0°C (32°F) [RH = 16%]
Pressure (altimeter): 29.97 inches Hg (1015.0 mb)
Winds: from the E (80 degrees) at 6 MPH (5 knots; 2.6 m/s)
Visibility: 6 or more miles (10+ km)
Ceiling: ceiling and visibility are OK
Clouds: unknown
Weather: no significant weather observed at this time

METAR text: GABS 162300Z 07006KT CAVOK 28/00 Q1015 NOSIG
Conditions at: GABS (BAMAKO/SENOU (MI, ML) observed 2300 UTC 16 February 2019
Temperature: 28.0°C (82°F)
Dewpoint: 0.0°C (32°F) [RH = 16%]
Pressure (altimeter): 29.97 inches Hg (1015.0 mb)
Winds: from the ENE (70 degrees) at 7 MPH (6 knots; 3.1 m/s)
Visibility: 6 or more miles (10+ km)
Ceiling: ceiling and visibility are OK
Clouds: unknown
Weather: no significant weather observed at this time

METAR text: GABS 162230Z 07007KT CAVOK 29/M01 Q1015 NOSIG
Conditions at: GABS (BAMAKO/SENOU (MI, ML) observed 2230 UTC 16 February 2019
Temperature: 29.0°C (84°F)
Dewpoint: -1.0°C (30°F) [RH = 14%]
Pressure (altimeter): 29.97 inches Hg (1015.0 mb)
Winds: from the ENE (70 degrees) at 8 MPH (7 knots; 3.6 m/s)
Visibility: 6 or more miles (10+ km)
Ceiling: ceiling and visibility are OK
Clouds: unknown
Weather: no significant weather observed at this time

METAR text: GABS 162200Z 06006KT CAVOK 29/M01 Q1015 NOSIG
Conditions at: GABS (BAMAKO/SENOU (MI, ML) observed 2200 UTC 16 February 2019
Temperature: 29.0°C (84°F)
Dewpoint: -1.0°C (30°F) [RH = 14%]
Pressure (altimeter): 29.97 inches Hg (1015.0 mb)
Winds: from the ENE (60 degrees) at 7 MPH (6 knots; 3.1 m/s)
Visibility: 6 or more miles (10+ km)
Ceiling: ceiling and visibility are OK
Clouds: unknown
Weather: no significant weather observed at this time

METAR text: GABS 162130Z 07006KT 8000 NSC 30/00 Q1014 NOSIG
Conditions at: GABS (BAMAKO/SENOU (MI, ML) observed 2130 UTC 16 February 2019
Temperature: 30.0°C (86°F)
Dewpoint: 0.0°C (32°F) [RH = 14%]
Pressure (altimeter): 29.94 inches Hg (1014.0 mb)
Winds: from the ENE (70 degrees) at 7 MPH (6 knots; 3.1 m/s)
Visibility: 5 miles ( 8 km)
Ceiling: at least 12,000 feet AGL
Clouds: sky clear below 12,000 feet AGL
Weather: no significant weather observed at this time

METAR text: GABS 162100Z 06006KT 8000 NSC 29/M01 Q1014 NOSIG
Conditions at: GABS (BAMAKO/SENOU (MI, ML) observed 2100 UTC 16 February 2019
Temperature: 29.0°C (84°F)
Dewpoint: -1.0°C (30°F) [RH = 14%]
Pressure (altimeter): 29.94 inches Hg (1014.0 mb)
Winds: from the ENE (60 degrees) at 7 MPH (6 knots; 3.1 m/s)
Visibility: 5 miles ( 8 km)
Ceiling: at least 12,000 feet AGL
Clouds: sky clear below 12,000 feet AGL
Weather: no significant weather observed at this time

Forecast for: GABS (BAMAKO/SENOU (MI, ML)
Text: TAF GABS 180500Z 1806/1912 18008KT 8000 NSC
Forecast period: 0600 UTC 18 February 2019 to 1200 UTC 19 February 2019
Forecast type: FROM: standard forecast or significant change
Winds: from the S (180 degrees) at 9 MPH (8 knots; 4.1 m/s)
Visibility: 5 miles (8 km)
Ceiling: unknown
Clouds: missing
Weather: no significant weather forecast for this period